Time;durP1;ratioP1;P1;durP2;ratioP2;P2;SDS_P1;SDS_P2;PMS_P1;PMS_P2;Temp;Humidity;BMP_temperature;BMP_pressure;BME280_temperature;BME280_humidity;BME280_pressure;Samples;Min_cycle;Max_cycle;Signal;HPM_P1;HPM_P2
2023/08/04 00:00:37;33168.00;0.11;58.07;0.00;0.00;0.62;;;;;21.40;1.00;;;;;;2268144;61;920;-86
2023/08/04 00:03:04;0.00;0.00;0.62;0.00;0.00;0.62;;;;;21.30;1.00;;;;;;2268003;61;1383;-85
2023/08/04 00:05:31;407644.00;1.36;702.95;27067.00;0.09;47.51;;;;;21.30;1.00;;;;;;2267975;61;1551;-87
2023/08/04 00:07:59;1182927.00;3.94;2059.38;82001.00;0.27;142.49;;;;;21.40;1.00;;;;;;2268132;61;1146;-86
2023/08/04 00:10:26;1059452.00;3.53;1838.06;116230.00;0.39;201.58;;;;;21.60;1.00;;;;;;2268051;61;1584;-86
2023/08/04 00:12:53;1079396.00;3.60;1873.62;154046.00;0.51;266.78;;;;;21.90;1.00;;;;;;2268102;61;1919;-86
2023/08/04 00:15:20;352867.00;1.18;608.79;59260.00;0.20;103.20;;;;;22.00;1.00;;;;;;2268042;61;1464;-86
2023/08/04 00:17:46;165512.00;0.55;286.54;66514.00;0.22;115.74;;;;;22.10;1.00;;;;;;2267954;61;1042;-87
2023/08/04 00:20:13;167804.00;0.56;290.48;62343.00;0.21;108.53;;;;;22.30;1.00;;;;;;2268022;61;1067;-86
2023/08/04 00:22:43;56487.00;0.19;98.40;0.00;0.00;0.62;;;;;22.40;1.00;;;;;;2267942;61;1241;-86
2023/08/04 00:25:12;0.00;0.00;0.62;0.00;0.00;0.62;;;;;22.20;1.00;;;;;;2268128;61;1087;-86
2023/08/04 00:27:39;123054.00;0.41;213.35;0.00;0.00;0.62;;;;;21.90;1.00;;;;;;2267987;61;983;-86
2023/08/04 00:30:09;123494.00;0.41;214.11;0.00;0.00;0.62;;;;;21.90;1.00;;;;;;2267984;61;1014;-88
2023/08/04 00:32:35;0.00;0.00;0.62;0.00;0.00;0.62;;;;;21.50;1.00;;;;;;2268013;61;1400;-86
2023/08/04 00:35:05;115659.00;0.39;200.59;0.00;0.00;0.62;;;;;21.40;1.00;;;;;;2267988;61;1926;-86
2023/08/04 00:37:33;8660.00;0.03;15.63;0.00;0.00;0.62;;;;;21.40;1.00;;;;;;2268011;61;1138;-86
2023/08/04 00:40:00;166599.00;0.56;288.41;16955.00;0.06;30.00;;;;;21.30;1.00;;;;;;2268013;61;1186;-85
2023/08/04 00:42:28;4070.00;0.01;7.67;0.00;0.00;0.62;;;;;21.00;1.00;;;;;;2267945;61;1310;-85
2023/08/04 00:44:55;50599.00;0.17;88.22;0.00;0.00;0.62;;;;;21.20;1.00;;;;;;2267937;61;1024;-85
2023/08/04 00:47:24;480621.00;1.60;828.47;37843.00;0.13;66.16;;;;;21.00;1.00;;;;;;2267976;61;1118;-86
2023/08/04 00:49:52;946149.00;3.15;1637.32;13837.00;0.05;24.60;;;;;20.90;1.00;;;;;;2267932;61;1103;-87
2023/08/04 00:52:19;1347974.00;4.49;2360.18;168079.00;0.56;290.96;;;;;20.80;1.00;;;;;;2267953;61;1383;-86
2023/08/04 00:54:47;946968.00;3.16;1638.77;110638.00;0.37;191.93;;;;;20.70;1.00;;;;;;2267934;61;1935;-87
2023/08/04 00:57:14;223255.00;0.74;385.94;72299.00;0.24;125.73;;;;;20.90;1.00;;;;;;2267927;61;1099;-85
2023/08/04 00:59:43;181199.00;0.60;313.55;69946.00;0.23;121.67;;;;;21.20;1.00;;;;;;2267914;61;2163;-85
2023/08/04 01:02:10;164221.00;0.55;284.31;72228.00;0.24;125.61;;;;;21.20;1.00;;;;;;2267952;61;1321;-86
2023/08/04 01:04:38;369522.00;1.23;637.42;77771.00;0.26;135.19;;;;;21.10;1.00;;;;;;2267870;61;1112;-86
2023/08/04 01:07:18;193099.00;0.64;334.04;64306.00;0.21;111.92;;;;;21.10;1.00;;;;;;2267884;61;1051;-86
2023/08/04 01:09:51;174423.00;0.58;301.88;83654.00;0.28;145.35;;;;;20.90;1.00;;;;;;2267689;61;1092;-85
2023/08/04 01:12:24;164652.00;0.55;285.05;67949.00;0.23;118.22;;;;;20.90;1.00;;;;;;2267912;61;1467;-86
2023/08/04 01:14:55;0.00;0.00;0.62;0.00;0.00;0.62;;;;;20.90;1.00;;;;;;2267954;61;1935;-86
2023/08/04 01:17:27;134341.00;0.45;232.81;0.00;0.00;0.62;;;;;20.90;1.00;;;;;;2267875;61;1058;-86
2023/08/04 01:19:54;0.00;0.00;0.62;0.00;0.00;0.62;;;;;20.80;1.00;;;;;;2267643;61;1142;-87
2023/08/04 01:22:24;85035.00;0.28;147.73;0.00;0.00;0.62;;;;;21.30;1.00;;;;;;2267742;61;1265;-86
2023/08/04 01:24:52;53872.00;0.18;93.88;0.00;0.00;0.62;;;;;21.20;1.00;;;;;;2267705;61;989;-86
2023/08/04 01:27:25;0.00;0.00;0.62;0.00;0.00;0.62;;;;;21.30;1.00;;;;;;2267625;61;1083;-86
2023/08/04 01:29:53;16392.00;0.05;29.02;0.00;0.00;0.62;;;;;21.30;1.00;;;;;;2267730;61;2009;-88
2023/08/04 01:32:20;95338.00;0.32;165.52;0.00;0.00;0.62;;;;;21.20;1.00;;;;;;2267732;61;1345;-86
2023/08/04 01:34:49;0.00;0.00;0.62;0.00;0.00;0.62;;;;;21.20;1.00;;;;;;2267674;61;2009;-87
2023/08/04 01:37:16;228527.00;0.76;395.01;35192.00;0.12;61.57;;;;;21.20;1.00;;;;;;2267780;61;1074;-86
2023/08/04 01:39:44;99391.00;0.33;172.52;0.00;0.00;0.62;;;;;21.10;1.00;;;;;;2267611;61;1115;-86
2023/08/04 01:42:11;103148.00;0.34;179.01;0.00;0.00;0.62;;;;;20.90;1.00;;;;;;2267496;61;1372;-87
2023/08/04 01:44:38;257516.00;0.86;444.88;39157.00;0.13;68.43;;;;;21.00;1.00;;;;;;2267625;61;1001;-88
2023/08/04 01:47:07;800794.00;2.67;1382.51;41853.00;0.14;73.09;;;;;21.20;1.00;;;;;;2267549;61;1998;-88
2023/08/04 01:49:34;1132127.00;3.77;1967.97;214522.00;0.72;370.92;;;;;21.20;1.00;;;;;;2267560;61;1043;-87
2023/08/04 01:52:01;340684.00;1.14;587.85;104837.00;0.35;181.92;;;;;21.20;1.00;;;;;;2267622;61;1111;-87
2023/08/04 01:54:28;269623.00;0.90;465.70;75001.00;0.25;130.40;;;;;21.00;1.00;;;;;;2267503;61;1919;-87
2023/08/04 01:56:56;21112.00;0.07;37.20;0.00;0.00;0.62;;;;;21.20;1.00;;;;;;2267599;61;1092;-86
2023/08/04 01:59:23;36989.00;0.12;64.68;0.00;0.00;0.62;;;;;21.50;1.00;;;;;;2267634;61;1017;-86
2023/08/04 02:01:50;37537.00;0.13;65.63;0.00;0.00;0.62;;;;;21.70;1.00;;;;;;2267547;61;1049;-85
2023/08/04 02:04:17;62846.00;0.21;109.40;0.00;0.00;0.62;;;;;21.60;1.00;;;;;;2267502;61;1299;-86
2023/08/04 02:06:44;43631.00;0.15;76.17;0.00;0.00;0.62;;;;;21.30;1.00;;;;;;2267439;61;1039;-85
2023/08/04 02:09:11;124423.00;0.41;215.71;0.00;0.00;0.62;;;;;21.60;1.00;;;;;;2267430;61;1002;-85
2023/08/04 02:11:38;166423.00;0.55;288.10;0.00;0.00;0.62;;;;;21.50;1.00;;;;;;2267675;61;1102;-87
2023/08/04 02:14:06;990826.00;3.30;1716.23;108629.00;0.36;188.46;;;;;21.40;1.00;;;;;;2267323;61;2010;-87
2023/08/04 02:16:33;1200529.00;4.00;2091.18;135956.00;0.45;235.60;;;;;21.20;1.00;;;;;;2267530;61;1230;-87
2023/08/04 02:19:05;968190.00;3.23;1676.21;47395.00;0.16;82.68;;;;;21.20;1.00;;;;;;2267567;61;1129;-86
2023/08/04 02:21:33;770505.00;2.57;1329.73;69379.00;0.23;120.69;;;;;21.40;1.00;;;;;;2268127;61;1060;-86
2023/08/04 02:24:00;196091.00;0.65;339.19;65643.00;0.22;114.23;;;;;21.30;1.00;;;;;;2268110;61;1371;-86
2023/08/04 02:26:26;206694.00;0.69;357.45;73848.00;0.25;128.41;;;;;20.90;1.00;;;;;;2268114;61;1100;-86
2023/08/04 02:28:54;350737.00;1.17;605.13;72062.00;0.24;125.32;;;;;20.60;1.00;;;;;;2268098;61;1098;-87
2023/08/04 02:31:24;243916.00;0.81;421.49;72986.00;0.24;126.92;;;;;20.50;1.00;;;;;;2268109;61;1096;-88
2023/08/04 02:33:52;184694.00;0.62;319.57;72951.00;0.24;126.86;;;;;20.60;1.00;;;;;;2268175;61;1923;-87
2023/08/04 02:36:18;8955.00;0.03;16.14;0.00;0.00;0.62;;;;;20.90;1.00;;;;;;2268316;61;992;-87
2023/08/04 02:38:45;90023.00;0.30;156.35;0.00;0.00;0.62;;;;;20.60;1.00;;;;;;2268163;61;2088;-85
2023/08/04 02:41:12;116787.00;0.39;202.54;2886.00;0.01;5.62;;;;;20.30;1.00;;;;;;2268285;61;1061;-87
2023/08/04 02:43:39;0.00;0.00;0.62;0.00;0.00;0.62;;;;;20.10;1.00;;;;;;2268064;61;1244;-85
2023/08/04 02:46:06;54199.00;0.18;94.45;0.00;0.00;0.62;;;;;19.80;1.00;;;;;;2268025;61;1115;-85
2023/08/04 02:48:34;573.00;0.00;1.61;0.00;0.00;0.62;;;;;19.70;1.00;;;;;;2268072;61;1596;-85
2023/08/04 02:51:03;0.00;0.00;0.62;0.00;0.00;0.62;;;;;19.70;1.00;;;;;;2268087;61;1129;-86
2023/08/04 02:53:31;149183.00;0.50;258.40;0.00;0.00;0.62;;;;;19.70;1.00;;;;;;2268026;61;2006;-87
2023/08/04 02:55:58;45862.00;0.15;80.03;0.00;0.00;0.62;;;;;19.90;1.00;;;;;;2268111;61;1547;-87
2023/08/04 02:58:26;8593.00;0.03;15.51;0.00;0.00;0.62;;;;;20.40;1.00;;;;;;2268261;61;1059;-88
2023/08/04 03:00:54;0.00;0.00;0.62;0.00;0.00;0.62;;;;;20.60;1.00;;;;;;2268011;61;1115;-86
2023/08/04 03:03:21;728477.00;2.43;1256.66;104372.00;0.35;181.12;;;;;20.60;1.00;;;;;;2268383;61;1262;-87
2023/08/04 03:05:49;1157829.00;3.86;2014.16;181900.00;0.61;314.76;;;;;20.90;1.00;;;;;;2268424;61;1115;-88
2023/08/04 03:08:16;1009514.00;3.37;1749.33;95473.00;0.32;165.76;;;;;21.00;1.00;;;;;;2268540;61;1062;-86
2023/08/04 03:10:43;1470327.00;4.90;2587.41;132315.00;0.44;229.32;;;;;20.60;1.00;;;;;;2268464;61;1095;-86
2023/08/04 03:13:10;1349126.00;4.50;2362.30;149448.00;0.50;258.86;;;;;20.40;1.00;;;;;;2268303;61;1536;-87
2023/08/04 03:15:37;839026.00;2.80;1449.27;76203.00;0.25;132.48;;;;;20.60;1.00;;;;;;2268353;61;1936;-90
2023/08/04 03:18:04;862937.00;2.88;1491.12;122864.00;0.41;213.02;;;;;21.10;1.00;;;;;;2268418;61;1144;-88
2023/08/04 03:20:37;238942.00;0.80;412.93;72869.00;0.24;126.72;;;;;21.30;1.00;;;;;;2268494;61;1091;-86
2023/08/04 03:23:05;357694.00;1.19;617.09;73418.00;0.24;127.67;;;;;21.40;1.00;;;;;;2268370;61;1453;-86
2023/08/04 03:25:33;667640.00;2.23;1151.17;109465.00;0.36;189.91;;;;;21.40;1.00;;;;;;2268363;61;1079;-88
2023/08/04 03:28:00;117553184.00;391.84;65801112.00;74427.00;0.25;129.41;;;;;21.60;1.00;;;;;;2268310;61;996;-86
2023/08/04 03:30:27;174061.00;0.58;301.26;70996.00;0.24;123.48;;;;;21.70;1.00;;;;;;2268333;61;1165;-86
2023/08/04 03:32:53;278103.00;0.93;480.28;77691.00;0.26;135.05;;;;;21.30;1.00;;;;;;2268216;61;1231;-86
2023/08/04 03:35:20;190811.00;0.64;330.10;69551.00;0.23;120.98;;;;;21.10;1.00;;;;;;2268012;61;2005;-86
2023/08/04 03:37:47;100976.00;0.34;175.26;0.00;0.00;0.62;;;;;21.30;1.00;;;;;;2268365;61;1002;-86
2023/08/04 03:40:15;98299.00;0.33;170.64;0.00;0.00;0.62;;;;;21.50;1.00;;;;;;2268406;61;1095;-87
2023/08/04 03:42:43;0.00;0.00;0.62;0.00;0.00;0.62;;;;;21.60;1.00;;;;;;2268398;61;1364;-87
2023/08/04 03:45:10;0.00;0.00;0.62;0.00;0.00;0.62;;;;;21.50;1.00;;;;;;2268401;61;2093;-86
2023/08/04 03:47:37;19096.00;0.06;33.70;0.00;0.00;0.62;;;;;21.30;1.00;;;;;;2268398;61;1090;-87
2023/08/04 03:50:05;0.00;0.00;0.62;0.00;0.00;0.62;;;;;21.20;1.00;;;;;;2268477;61;1225;-86
2023/08/04 03:52:32;0.00;0.00;0.62;0.00;0.00;0.62;;;;;20.90;1.00;;;;;;2268330;61;1284;-87
2023/08/04 03:54:58;0.00;0.00;0.62;0.00;0.00;0.62;;;;;20.90;1.00;;;;;;2268161;61;1998;-87
2023/08/04 03:57:27;57204.00;0.19;99.64;0.00;0.00;0.62;;;;;20.90;1.00;;;;;;2268339;61;1053;-86
2023/08/04 03:59:54;28487.00;0.09;49.96;0.00;0.00;0.62;;;;;20.70;1.00;;;;;;2268316;61;925;-86
2023/08/04 04:02:21;16735.00;0.06;29.62;0.00;0.00;0.62;;;;;20.80;1.00;;;;;;2268323;61;1412;-87
2023/08/04 04:04:48;308325.00;1.03;532.23;73142.00;0.24;127.19;;;;;20.70;1.00;;;;;;2268358;61;1115;-86
2023/08/04 04:07:15;16663.00;0.06;29.49;0.00;0.00;0.62;;;;;20.70;1.00;;;;;;2268250;61;1135;-86
2023/08/04 04:09:42;23122.00;0.08;40.68;0.00;0.00;0.62;;;;;20.90;1.00;;;;;;2268143;61;1133;-86
2023/08/04 04:12:09;43816.00;0.15;76.49;0.00;0.00;0.62;;;;;20.60;1.00;;;;;;2268291;61;1394;-86
2023/08/04 04:14:37;0.00;0.00;0.62;0.00;0.00;0.62;;;;;20.60;1.00;;;;;;2268318;61;1923;-85
2023/08/04 04:17:04;0.00;0.00;0.62;0.00;0.00;0.62;;;;;20.50;1.00;;;;;;2268277;61;1080;-86
2023/08/04 04:19:31;0.00;0.00;0.62;0.00;0.00;0.62;;;;;20.20;1.00;;;;;;2268189;61;1623;-87
2023/08/04 04:21:58;0.00;0.00;0.62;0.00;0.00;0.62;;;;;20.50;1.00;;;;;;2268169;61;958;-86
2023/08/04 04:24:25;90905.00;0.30;157.87;0.00;0.00;0.62;;;;;20.50;1.00;;;;;;2268289;61;1291;-86
2023/08/04 04:26:51;30489.00;0.10;53.43;0.00;0.00;0.62;;;;;20.40;1.00;;;;;;2268180;61;1107;-86
2023/08/04 04:29:18;7476.00;0.02;13.58;0.00;0.00;0.62;;;;;20.40;1.00;;;;;;2268311;61;996;-86
2023/08/04 04:31:46;0.00;0.00;0.62;0.00;0.00;0.62;;;;;20.80;1.00;;;;;;2268253;61;1178;-86
2023/08/04 04:34:13;81170.00;0.27;141.06;0.00;0.00;0.62;;;;;20.70;1.00;;;;;;2268150;61;1924;-85
2023/08/04 04:36:40;31370.00;0.10;54.95;0.00;0.00;0.62;;;;;20.60;1.00;;;;;;2268037;61;1102;-86
2023/08/04 04:39:07;0.00;0.00;0.62;0.00;0.00;0.62;;;;;20.60;1.00;;;;;;2268358;61;1075;-84
2023/08/04 04:41:34;6595.00;0.02;12.05;0.00;0.00;0.62;;;;;20.70;1.00;;;;;;2268194;61;1132;-84
2023/08/04 04:44:01;41683.00;0.14;72.80;0.00;0.00;0.62;;;;;20.80;1.00;;;;;;2267946;61;1295;-85
2023/08/04 04:46:28;0.00;0.00;0.62;0.00;0.00;0.62;;;;;21.00;1.00;;;;;;2268282;61;1063;-86
2023/08/04 04:48:56;1120031.00;3.73;1946.28;103627.00;0.35;179.83;;;;;21.00;1.00;;;;;;2268064;61;1115;-86
2023/08/04 04:51:23;788819.00;2.63;1361.63;70149.00;0.23;122.02;;;;;21.30;1.00;;;;;;2268131;61;985;-86
2023/08/04 04:53:50;736621.00;2.46;1270.80;38501.00;0.13;67.29;;;;;21.50;1.00;;;;;;2268158;61;1401;-86
2023/08/04 04:56:17;854477.00;2.85;1476.30;86412.00;0.29;150.11;;;;;21.30;1.00;;;;;;2267929;61;1936;-86
2023/08/04 04:58:44;670911.00;2.24;1156.83;17544.00;0.06;31.02;;;;;21.20;1.00;;;;;;2268226;61;1130;-86
2023/08/04 05:01:10;1134296.00;3.78;1971.87;156008.00;0.52;270.16;;;;;21.30;1.00;;;;;;2268132;61;1104;-86
2023/08/04 05:03:37;1223072.00;4.08;2131.99;111830.00;0.37;193.99;;;;;21.50;1.00;;;;;;2268212;61;1384;-84
2023/08/04 05:06:05;708020.00;2.36;1221.15;32594.00;0.11;57.07;;;;;21.60;1.00;;;;;;2268251;61;1083;-86
2023/08/04 05:08:32;564841.00;1.88;973.55;134471.00;0.45;233.04;;;;;21.50;1.00;;;;;;2268034;61;1116;-85
2023/08/04 05:10:59;221908.00;0.74;383.63;64065.00;0.21;111.50;;;;;21.30;1.00;;;;;;2267990;61;1066;-86
2023/08/04 05:13:26;214637.00;0.72;371.12;53564.00;0.18;93.35;;;;;21.00;1.00;;;;;;2268020;61;1375;-85
2023/08/04 05:15:53;164045.00;0.55;284.01;66084.00;0.22;114.99;;;;;21.30;1.00;;;;;;2268127;61;1922;-87
2023/08/04 05:18:20;182831.00;0.61;316.36;67230.00;0.22;116.97;;;;;21.10;1.00;;;;;;2268043;61;1115;-87
2023/08/04 05:20:48;10289.00;0.03;18.45;0.00;0.00;0.62;;;;;21.20;1.00;;;;;;2268051;61;2199;-85
2023/08/04 05:23:16;476.00;0.00;1.45;0.00;0.00;0.62;;;;;21.50;1.00;;;;;;2268011;61;1358;-87
2023/08/04 05:25:43;120619.00;0.40;209.15;0.00;0.00;0.62;;;;;21.70;1.00;;;;;;2268112;61;1064;-86
2023/08/04 05:28:22;59572.00;0.20;103.74;0.00;0.00;0.62;;;;;21.80;1.00;;;;;;2268064;61;1059;-85
2023/08/04 05:30:50;176425.00;0.59;305.33;72711.00;0.24;126.44;;;;;21.80;1.00;;;;;;2268127;61;1065;-86
2023/08/04 05:33:16;259394.00;0.86;448.11;75577.00;0.25;131.40;;;;;21.70;1.00;;;;;;2267986;61;1377;-86
2023/08/04 05:35:48;173072.00;0.58;299.56;73329.00;0.24;127.51;;;;;21.30;1.00;;;;;;2267875;61;2009;-86
2023/08/04 05:38:16;325287.00;1.08;561.39;122622.00;0.41;212.61;;;;;21.00;1.00;;;;;;2268167;61;919;-87
2023/08/04 05:40:45;17137.00;0.06;30.31;0.00;0.00;0.62;;;;;21.00;1.00;;;;;;2267974;61;1059;-86
2023/08/04 05:43:12;1581.00;0.01;3.36;0.00;0.00;0.62;;;;;21.00;1.00;;;;;;2268082;61;1298;-86
2023/08/04 05:45:42;0.00;0.00;0.62;0.00;0.00;0.62;;;;;21.00;1.00;;;;;;2268023;61;1100;-86
2023/08/04 05:48:09;210299.00;0.70;363.65;72302.00;0.24;125.74;;;;;21.10;1.00;;;;;;2267954;61;1065;-86
2023/08/04 05:50:36;168799.00;0.56;292.20;69061.00;0.23;120.14;;;;;21.40;1.00;;;;;;2267907;61;1018;-86
2023/08/04 05:53:03;18494.00;0.06;32.66;0.00;0.00;0.62;;;;;21.70;1.00;;;;;;2267994;61;1535;-86
2023/08/04 05:55:32;0.00;0.00;0.62;0.00;0.00;0.62;;;;;21.60;1.00;;;;;;2268297;61;2000;-86
2023/08/04 05:57:58;159726.00;0.53;276.57;0.00;0.00;0.62;;;;;21.60;1.00;;;;;;2268575;61;2148;-86
2023/08/04 06:00:26;77747.00;0.26;135.15;0.00;0.00;0.62;;;;;21.60;1.00;;;;;;2268723;61;1072;-86
2023/08/04 06:02:53;84108.00;0.28;146.13;0.00;0.00;0.62;;;;;21.60;1.00;;;;;;2268637;61;1361;-87
2023/08/04 06:05:20;8963.00;0.03;16.15;0.00;0.00;0.62;;;;;21.60;1.00;;;;;;2268512;61;1052;-86
2023/08/04 06:07:48;114245.00;0.38;198.15;0.00;0.00;0.62;;;;;21.60;1.00;;;;;;2268642;61;1072;-85
2023/08/04 06:10:18;0.00;0.00;0.62;0.00;0.00;0.62;;;;;21.70;1.00;;;;;;2268631;61;1081;-86
2023/08/04 06:12:46;140547.00;0.47;243.51;0.00;0.00;0.62;;;;;21.90;1.00;;;;;;2268561;61;1364;-84
2023/08/04 06:15:13;45825.00;0.15;79.97;0.00;0.00;0.62;;;;;21.90;1.00;;;;;;2268624;61;2014;-85
2023/08/04 06:17:40;0.00;0.00;0.62;0.00;0.00;0.62;;;;;21.90;1.00;;;;;;2268612;61;1118;-85
2023/08/04 06:20:08;160627.00;0.54;278.12;35388.00;0.12;61.91;;;;;21.80;1.00;;;;;;2268770;61;1063;-86
2023/08/04 06:22:35;0.00;0.00;0.62;0.00;0.00;0.62;;;;;21.70;1.00;;;;;;2268702;61;1382;-86
2023/08/04 06:25:03;0.00;0.00;0.62;0.00;0.00;0.62;;;;;21.90;1.00;;;;;;2268622;61;1121;-86
2023/08/04 06:27:30;98358.00;0.33;170.74;0.00;0.00;0.62;;;;;22.30;1.00;;;;;;2268708;61;1135;-87
2023/08/04 06:29:59;0.00;0.00;0.62;0.00;0.00;0.62;;;;;22.30;1.00;;;;;;2268660;61;2214;-86
2023/08/04 06:32:26;16282.00;0.05;28.83;0.00;0.00;0.62;;;;;22.60;1.00;;;;;;2268544;61;1367;-86
2023/08/04 06:34:52;0.00;0.00;0.62;0.00;0.00;0.62;;;;;22.60;1.00;;;;;;2268574;61;1920;-84
2023/08/04 06:37:19;31624.00;0.11;55.39;0.00;0.00;0.62;;;;;23.10;1.00;;;;;;2268532;61;985;-83
2023/08/04 06:39:46;0.00;0.00;0.62;0.00;0.00;0.62;;;;;23.40;1.00;;;;;;2268316;61;1084;-85
2023/08/04 06:42:13;0.00;0.00;0.62;0.00;0.00;0.62;;;;;23.80;1.00;;;;;;2268476;61;1407;-84
2023/08/04 06:44:40;0.00;0.00;0.62;0.00;0.00;0.62;;;;;24.20;1.00;;;;;;2268568;61;1130;-84
2023/08/04 06:47:08;148.00;0.00;0.88;0.00;0.00;0.62;;;;;24.70;1.00;;;;;;2268466;61;935;-85
2023/08/04 06:49:35;125749.00;0.42;218.00;24760.00;0.08;43.51;;;;;25.00;1.00;;;;;;2268556;61;1082;-84
2023/08/04 06:52:02;0.00;0.00;0.62;0.00;0.00;0.62;;;;;25.60;1.00;;;;;;2268458;61;1152;-84
2023/08/04 06:54:29;36104.00;0.12;63.15;0.00;0.00;0.62;;;;;25.90;1.00;;;;;;2268334;61;1537;-85
2023/08/04 06:56:56;98067.00;0.33;170.24;21016.00;0.07;37.03;;;;;26.90;1.00;;;;;;2268385;61;2024;-84
2023/08/04 06:59:22;0.00;0.00;0.62;0.00;0.00;0.62;;;;;28.00;1.00;;;;;;2268387;61;1137;-85
2023/08/04 07:01:49;268412.00;0.89;463.61;6510.00;0.02;11.90;;;;;28.50;1.00;;;;;;2268412;61;1151;-85
2023/08/04 07:04:17;971817.00;3.24;1682.62;79205.00;0.26;137.66;;;;;27.80;1.00;;;;;;2268290;61;1237;-85
2023/08/04 07:06:44;732284.00;2.44;1263.27;139707.00;0.47;242.07;;;;;27.40;1.00;;;;;;2268215;61;1085;-86
2023/08/04 07:09:11;1616479.00;5.39;2864.27;149533.00;0.50;259.00;;;;;27.40;1.00;;;;;;2268396;61;1083;-84
2023/08/04 07:11:38;1179015.00;3.93;2052.32;126707.00;0.42;219.65;;;;;26.80;1.00;;;;;;2268518;61;1058;-84
2023/08/04 07:14:05;812360.00;2.71;1402.69;129498.00;0.43;224.46;;;;;26.30;1.00;;;;;;2261704;61;1928;-85
2023/08/04 07:16:31;500198.00;1.67;862.16;104591.00;0.35;181.50;;;;;25.80;1.00;;;;;;2260200;61;1922;-87
2023/08/04 07:18:58;284884.00;0.95;491.93;66675.00;0.22;116.01;;;;;25.40;1.00;;;;;;2260368;61;1052;-85
2023/08/04 07:21:26;231089.00;0.77;399.42;66666.00;0.22;116.00;;;;;25.10;1.00;;;;;;2260332;61;1037;-85
2023/08/04 07:23:53;345916.00;1.15;596.84;83365.00;0.28;144.85;;;;;24.80;1.00;;;;;;2260309;61;1412;-86
2023/08/04 07:26:20;188338.00;0.63;325.85;66370.00;0.22;115.49;;;;;24.70;1.00;;;;;;2260323;61;1052;-85
2023/08/04 07:28:47;164500.00;0.55;284.79;68315.00;0.23;118.85;;;;;24.50;1.00;;;;;;2260253;61;1055;-84
2023/08/04 07:31:13;167314.00;0.56;289.64;70825.00;0.24;123.19;;;;;24.50;1.00;;;;;;2260342;61;1024;-86
2023/08/04 07:33:40;158584.00;0.53;274.60;58944.00;0.20;102.65;;;;;24.30;1.00;;;;;;2260288;61;1396;-85
2023/08/04 07:36:08;42990.00;0.14;75.06;0.00;0.00;0.62;;;;;24.30;1.00;;;;;;2260371;61;2001;-86
2023/08/04 07:38:36;0.00;0.00;0.62;0.00;0.00;0.62;;;;;24.70;1.00;;;;;;2260298;61;1111;-84
2023/08/04 07:41:03;28152.00;0.09;49.38;0.00;0.00;0.62;;;;;25.20;1.00;;;;;;2260093;61;1086;-85
2023/08/04 07:43:30;33268.00;0.11;58.24;0.00;0.00;0.62;;;;;25.50;1.00;;;;;;2259926;61;1346;-86
2023/08/04 07:46:00;0.00;0.00;0.62;0.00;0.00;0.62;;;;;25.70;1.00;;;;;;2260259;61;1087;-88
2023/08/04 07:53:26;1335921.00;4.45;2338.00;27000.00;0.09;47.39;;;;;25.60;1.00;;;;;;1565667;40;3449;-87
2023/08/04 08:00:51;1686783.00;5.62;2999.77;172627.00;0.58;298.79;;;;;25.30;1.00;;;;;;1500919;40;3495;-88
2023/08/04 08:05:52;1309998.00;4.37;2290.41;77038.00;0.26;133.92;;;;;27.20;1.00;;;;;;1576779;56;3621;-89
2023/08/04 08:23:13;1073683.00;3.58;1863.42;0.00;0.00;0.62;;;;;32.40;1.00;;;;;;2344386;40;3436;-89
2023/08/04 08:25:41;1800130.00;6.00;3221.68;401614.00;1.34;692.58;;;;;31.80;1.00;;;;;;2268357;61;1080;-88
2023/08/04 08:28:28;1097234.00;3.66;1905.48;142404.00;0.47;246.72;;;;;32.50;1.00;;;;;;2268266;61;1563;-89
2023/08/04 08:30:56;1376565.00;4.59;2412.93;44201.00;0.15;77.16;;;;;31.90;1.00;;;;;;2285657;40;3760;-87
2023/08/04 08:45:51;1013587.00;3.38;1756.55;0.00;0.00;0.62;;;;;31.10;1.00;;;;;;2423810;55;3708;-89
2023/08/04 08:58:24;1115567.00;3.72;1938.29;0.00;0.00;0.62;;;;;30.20;1.00;;;;;;1786288;56;3638;-88
2023/08/04 11:33:51;929340.00;3.10;1607.71;64457.00;0.21;112.18;;;;;29.10;1.00;;;;;;2498832;55;3623;31
2023/08/04 12:09:08;1168780.00;3.90;2033.87;0.00;0.00;0.62;;;;;28.00;1.00;;;;;;2266514;61;1338;-92
2023/08/04 13:44:22;1468547.00;4.90;2584.07;0.00;0.00;0.62;;;;;26.00;1.00;;;;;;1415319;56;3585;-89
2023/08/04 14:06:53;1343337.00;4.48;2351.64;26558.00;0.09;46.62;;;;;24.70;1.00;;;;;;1535094;56;3635;-89
2023/08/04 16:12:14;2583671.00;8.61;4899.79;77376.00;0.26;134.50;;;;;23.60;3.10;;;;;;2270735;61;989;-91
2023/08/04 16:24:54;1991807.00;6.64;3607.51;45811.00;0.15;79.94;;;;;23.90;3.20;;;;;;2266727;61;1000;-93
2023/08/04 16:27:23;1636097.00;5.45;2901.93;145688.00;0.49;252.38;;;;;23.50;4.60;;;;;;2264978;61;1578;-92
2023/08/04 16:29:53;903271.00;3.01;1561.87;33438.00;0.11;58.53;;;;;23.00;6.90;;;;;;2265011;61;624;-90
2023/08/04 18:17:03;33682.00;0.11;58.96;0.00;0.00;0.62;;;;;23.10;1.00;;;;;;2355416;40;3207;-89
2023/08/04 18:27:11;1067265.00;3.56;1851.98;0.00;0.00;0.62;;;;;23.40;1.00;;;;;;2447872;40;3584;-88
2023/08/04 18:32:26;801119.00;2.67;1383.08;0.00;0.00;0.62;;;;;23.20;1.00;;;;;;2270487;61;1339;-89
2023/08/04 19:22:30;479280.00;1.60;826.16;0.00;0.00;0.62;;;;;23.20;1.00;;;;;;2277875;40;3547;-91
2023/08/04 19:24:57;108487.00;0.36;188.22;0.00;0.00;0.62;;;;;23.30;1.00;;;;;;2268480;61;1539;-89
2023/08/04 20:44:49;1234418.00;4.11;2152.57;46246.00;0.15;80.69;;;;;21.70;2.60;;;;;;2266123;61;995;-90
2023/08/04 20:59:49;1345855.00;4.49;2356.27;0.00;0.00;0.62;;;;;21.20;3.80;;;;;;2265777;61;1067;-90
2023/08/04 22:12:26;1027412.00;3.42;1781.08;0.00;0.00;0.62;;;;;21.50;2.90;;;;;;2430381;55;3586;-86
2023/08/04 23:24:42;1704659.00;5.68;3034.48;40761.00;0.14;71.21;;;;;21.20;3.50;;;;;;2265433;61;1376;-87
2023/08/04 23:39:32;1139791.00;3.80;1981.73;79547.00;0.27;138.25;;;;;20.40;6.50;;;;;;2264812;61;1380;-84
2023/08/04 23:42:01;629716.00;2.10;1085.56;0.00;0.00;0.62;;;;;20.30;6.50;;;;;;2267867;40;3594;-85
